Time,TemperatureF,DewpointF,PressureIn,WindDirection,WindDirectionDegrees,WindSpeedMPH,WindSpeedGustMPH,Humidity,HourlyPrecipIn,Conditions,Clouds,dailyrainin,SolarRadiationWatts/m^2,SoftwareType,DateUTC
2013-03-24 00:04:00,29.9,20.3,29.89,NNW,340,4.0,5.0,67,0.00,,,0.00,0,Wunderground v.1.15,2013-03-24 04:04:00,
2013-03-24 00:09:00,29.8,20.2,29.89,NW,314,4.0,5.0,67,0.00,,,0.00,0,Wunderground v.1.15,2013-03-24 04:09:00,
2013-03-24 00:14:00,29.7,20.1,29.89,North,355,3.0,6.0,67,0.00,,,0.00,0,Wunderground v.1.15,2013-03-24 04:14:00,
2013-03-24 00:24:00,29.4,20.1,29.89,NNW,332,4.0,7.0,68,0.00,,,0.00,0,Wunderground v.1.15,2013-03-24 04:24:00,
2013-03-24 00:34:00,29.2,19.9,29.89,NNW,336,4.0,4.0,68,0.00,,,0.00,0,Wunderground v.1.15,2013-03-24 04:34:00,
2013-03-24 00:39:00,29.0,20.1,29.89,NNW,348,4.0,4.0,69,0.00,,,0.00,0,Wunderground v.1.15,2013-03-24 04:39:00,
2013-03-24 00:44:00,28.8,19.9,29.89,NNW,336,3.0,3.0,69,0.00,,,0.00,0,Wunderground v.1.15,2013-03-24 04:44:00,
2013-03-24 00:54:00,28.7,20.1,29.89,SSE,150,3.0,5.0,70,0.00,,,0.00,0,Wunderground v.1.15,2013-03-24 04:54:00,
2013-03-24 00:59:00,28.5,20.3,29.89,East,85,3.0,5.0,71,0.00,,,0.00,0,Wunderground v.1.15,2013-03-24 04:59:00,
2013-03-24 01:09:00,28.4,20.2,29.89,East,88,4.0,7.0,71,0.00,,,0.00,0,Wunderground v.1.15,2013-03-24 05:09:00,
2013-03-24 01:14:00,28.3,20.4,29.89,North,5,4.0,4.0,72,0.00,,,0.00,0,Wunderground v.1.15,2013-03-24 05:14:00,
2013-03-24 01:19:00,28.3,20.4,29.89,NNE,28,3.0,4.0,72,0.00,,,0.00,0,Wunderground v.1.15,2013-03-24 05:19:00,
2013-03-24 01:24:00,28.2,20.7,29.89,NNW,331,3.0,3.0,73,0.00,,,0.00,0,Wunderground v.1.15,2013-03-24 05:24:00,
2013-03-24 01:34:00,28.1,20.6,29.88,NNW,327,5.0,5.0,73,0.00,,,0.00,0,Wunderground v.1.15,2013-03-24 05:34:00,
2013-03-24 01:44:00,28.0,20.8,29.88,NNW,345,4.0,9.0,74,0.00,,,0.00,0,Wunderground v.1.15,2013-03-24 05:44:00,
2013-03-24 01:49:00,27.9,20.7,29.89,NW,324,4.0,9.0,74,0.00,,,0.00,0,Wunderground v.1.15,2013-03-24 05:49:00,
2013-03-24 01:59:00,27.9,20.7,29.89,North,349,4.0,5.0,74,0.00,,,0.00,0,Wunderground v.1.15,2013-03-24 05:59:00,
2013-03-24 02:04:00,27.8,20.6,29.89,NNW,339,4.0,6.0,74,0.00,,,0.00,0,Wunderground v.1.15,2013-03-24 06:04:00,
2013-03-24 02:09:00,27.8,20.9,29.89,North,5,4.0,6.0,75,0.00,,,0.00,0,Wunderground v.1.15,2013-03-24 06:09:00,
2013-03-24 02:14:00,27.8,20.9,29.88,NNE,16,5.0,10.0,75,0.00,,,0.00,0,Wunderground v.1.15,2013-03-24 06:14:00,
2013-03-24 02:24:00,27.8,20.9,29.88,NNE,19,6.0,6.0,75,0.00,,,0.00,0,Wunderground v.1.15,2013-03-24 06:24:00,
2013-03-24 02:29:00,27.9,21.0,29.88,WNW,295,5.0,6.0,75,0.00,,,0.00,0,Wunderground v.1.15,2013-03-24 06:29:00,
2013-03-24 02:34:00,27.9,21.0,29.88,NNW,335,4.0,4.0,75,0.00,,,0.00,0,Wunderground v.1.15,2013-03-24 06:34:00,
2013-03-24 02:44:00,27.7,20.8,29.87,NNW,342,2.0,3.0,75,0.00,,,0.00,0,Wunderground v.1.15,2013-03-24 06:44:00,
2013-03-24 02:49:00,27.6,20.7,29.86,North,355,4.0,10.0,75,0.00,,,0.00,0,Wunderground v.1.15,2013-03-24 06:49:00,
2013-03-24 02:54:00,27.6,20.7,29.87,NW,321,5.0,6.0,75,0.00,,,0.00,0,Wunderground v.1.15,2013-03-24 06:54:00,
2013-03-24 03:04:00,27.6,21.0,29.86,NNW,346,4.0,5.0,76,0.00,,,0.00,0,Wunderground v.1.15,2013-03-24 07:04:00,
2013-03-24 03:09:00,27.6,20.7,29.86,North,5,5.0,5.0,75,0.00,,,0.00,0,Wunderground v.1.15,2013-03-24 07:09:00,
2013-03-24 03:14:00,27.5,20.6,29.86,NNW,341,4.0,4.0,75,0.00,,,0.00,0,Wunderground v.1.15,2013-03-24 07:14:00,
2013-03-24 03:19:00,27.5,20.6,29.85,NW,316,4.0,6.0,75,0.00,,,0.00,0,Wunderground v.1.15,2013-03-24 07:19:00,
2013-03-24 03:24:00,27.4,20.5,29.85,NNW,348,4.0,9.0,75,0.00,,,0.00,0,Wunderground v.1.15,2013-03-24 07:24:00,
2013-03-24 03:29:00,27.4,20.5,29.85,NW,321,5.0,9.0,75,0.00,,,0.00,0,Wunderground v.1.15,2013-03-24 07:29:00,
2013-03-24 03:34:00,27.4,20.5,29.85,NW,322,4.0,4.0,75,0.00,,,0.00,0,Wunderground v.1.15,2013-03-24 07:34:00,
2013-03-24 03:44:00,27.3,20.7,29.85,NW,326,3.0,3.0,76,0.00,,,0.00,0,Wunderground v.1.15,2013-03-24 07:44:00,
2013-03-24 03:49:00,27.2,20.6,29.85,North,360,2.0,3.0,76,0.00,,,0.00,0,Wunderground v.1.15,2013-03-24 07:49:00,
2013-03-24 03:54:00,27.2,20.6,29.85,NNE,32,3.0,3.0,76,0.00,,,0.00,0,Wunderground v.1.15,2013-03-24 07:54:00,
2013-03-24 03:59:00,27.2,20.6,29.84,North,11,4.0,5.0,76,0.00,,,0.00,0,Wunderground v.1.15,2013-03-24 07:59:00,
2013-03-24 04:09:00,27.2,20.6,29.84,NNW,343,4.0,6.0,76,0.00,,,0.00,0,Wunderground v.1.15,2013-03-24 08:09:00,
2013-03-24 04:14:00,27.2,20.6,29.83,NNW,344,4.0,6.0,76,0.00,,,0.00,0,Wunderground v.1.15,2013-03-24 08:14:00,
2013-03-24 04:19:00,27.2,20.6,29.83,NNW,341,6.0,6.0,76,0.00,,,0.00,0,Wunderground v.1.15,2013-03-24 08:19:00,
2013-03-24 04:29:00,27.4,20.5,29.83,North,5,5.0,6.0,75,0.00,,,0.00,0,Wunderground v.1.15,2013-03-24 08:29:00,
2013-03-24 04:34:00,27.5,20.6,29.83,NNE,20,5.0,5.0,75,0.00,,,0.00,0,Wunderground v.1.15,2013-03-24 08:34:00,
2013-03-24 04:39:00,27.6,20.7,29.84,NE,44,4.0,5.0,75,0.00,,,0.00,0,Wunderground v.1.15,2013-03-24 08:39:00,
2013-03-24 04:44:00,27.5,20.3,29.85,NNW,336,3.0,3.0,74,0.00,,,0.00,0,Wunderground v.1.15,2013-03-24 08:44:00,
2013-03-24 04:49:00,27.6,20.4,29.87,North,5,3.0,4.0,74,0.00,,,0.00,0,Wunderground v.1.15,2013-03-24 08:49:00,
2013-03-24 04:54:00,27.6,20.4,29.87,North,360,3.0,3.0,74,0.00,,,0.00,0,Wunderground v.1.15,2013-03-24 08:54:00,
2013-03-24 04:59:00,27.5,20.3,29.86,NNW,345,1.0,3.0,74,0.00,,,0.00,0,Wunderground v.1.15,2013-03-24 08:59:00,
2013-03-24 05:04:00,27.4,20.2,29.86,NNE,13,2.0,5.0,74,0.00,,,0.00,0,Wunderground v.1.15,2013-03-24 09:04:00,
2013-03-24 05:09:00,27.4,20.2,29.86,North,355,3.0,5.0,74,0.00,,,0.00,0,Wunderground v.1.15,2013-03-24 09:09:00,
2013-03-24 05:14:00,27.4,20.2,29.86,NNW,327,3.0,3.0,74,0.00,,,0.00,0,Wunderground v.1.15,2013-03-24 09:14:00,
2013-03-24 05:19:00,27.4,20.2,29.86,NNW,334,2.0,3.0,74,0.00,,,0.00,0,Wunderground v.1.15,2013-03-24 09:19:00,
2013-03-24 05:29:00,27.2,20.0,29.87,NNE,30,2.0,2.0,74,0.00,,,0.00,0,Wunderground v.1.15,2013-03-24 09:29:00,
2013-03-24 05:34:00,27.1,20.2,29.86,NNW,333,2.0,3.0,75,0.00,,,0.00,0,Wunderground v.1.15,2013-03-24 09:34:00,
2013-03-24 05:39:00,27.0,20.1,29.87,NNW,338,1.0,3.0,75,0.00,,,0.00,0,Wunderground v.1.15,2013-03-24 09:39:00,
2013-03-24 05:44:00,26.8,19.9,29.87,NNW,329,1.0,5.0,75,0.00,,,0.00,0,Wunderground v.1.15,2013-03-24 09:44:00,
2013-03-24 05:49:00,26.8,20.2,29.87,North,5,2.0,5.0,76,0.00,,,0.00,0,Wunderground v.1.15,2013-03-24 09:49:00,
2013-03-24 05:54:00,26.7,20.1,29.87,NW,313,3.0,6.0,76,0.00,,,0.00,0,Wunderground v.1.15,2013-03-24 09:54:00,
2013-03-24 06:04:00,26.9,20.3,29.87,North,360,5.0,5.0,76,0.00,,,0.00,0,Wunderground v.1.15,2013-03-24 10:04:00,
2013-03-24 06:09:00,26.9,20.3,29.87,North,351,5.0,6.0,76,0.00,,,0.00,0,Wunderground v.1.15,2013-03-24 10:09:00,
2013-03-24 06:14:00,26.9,20.3,29.87,North,355,5.0,6.0,76,0.00,,,0.00,0,Wunderground v.1.15,2013-03-24 10:14:00,
2013-03-24 06:24:00,27.0,20.4,29.88,NNE,26,4.0,4.0,76,0.00,,,0.00,0,Wunderground v.1.15,2013-03-24 10:24:00,
2013-03-24 06:29:00,27.0,20.4,29.87,WNW,289,4.0,4.0,76,0.00,,,0.00,0,Wunderground v.1.15,2013-03-24 10:29:00,
2013-03-24 06:39:00,27.1,20.5,29.88,NW,316,6.0,8.0,76,0.00,,,0.00,0,Wunderground v.1.15,2013-03-24 10:39:00,
2013-03-24 06:44:00,27.1,20.5,29.87,North,360,5.0,6.0,76,0.00,,,0.00,0,Wunderground v.1.15,2013-03-24 10:44:00,
2013-03-24 06:49:00,27.1,20.5,29.88,NNW,327,4.0,6.0,76,0.00,,,0.00,5,Wunderground v.1.15,2013-03-24 10:49:00,
2013-03-24 06:59:00,27.0,20.4,29.88,North,5,3.0,4.0,76,0.00,,,0.00,12,Wunderground v.1.15,2013-03-24 10:59:00,
2013-03-24 07:04:00,27.1,20.5,29.88,NNW,348,4.0,8.0,76,0.00,,,0.00,16,Wunderground v.1.15,2013-03-24 11:04:00,
2013-03-24 07:14:00,27.4,20.5,29.87,North,360,7.0,7.0,75,0.00,,,0.00,25,Wunderground v.1.15,2013-03-24 11:14:00,
2013-03-24 07:19:00,27.6,20.4,29.87,North,355,6.0,7.0,74,0.00,,,0.00,37,Wunderground v.1.15,2013-03-24 11:19:00,
2013-03-24 07:24:00,27.9,20.7,29.87,NW,325,5.0,5.0,74,0.00,,,0.00,49,Wunderground v.1.15,2013-03-24 11:24:00,
2013-03-24 07:29:00,28.3,20.7,29.87,NNW,347,5.0,5.0,73,0.00,,,0.00,60,Wunderground v.1.15,2013-03-24 11:29:00,
2013-03-24 07:34:00,28.7,20.8,29.87,NE,37,5.0,5.0,72,0.00,,,0.00,76,Wunderground v.1.15,2013-03-24 11:34:00,
2013-03-24 07:39:00,29.0,20.8,29.87,NW,304,5.0,5.0,71,0.00,,,0.00,91,Wunderground v.1.15,2013-03-24 11:39:00,
2013-03-24 07:44:00,29.4,21.2,29.87,North,355,5.0,6.0,71,0.00,,,0.00,109,Wunderground v.1.15,2013-03-24 11:44:00,
2013-03-24 07:54:00,30.1,21.2,29.88,NW,326,5.0,5.0,69,0.00,,,0.00,148,Wunderground v.1.15,2013-03-24 11:54:00,
2013-03-24 07:59:00,30.6,21.3,29.88,North,350,4.0,6.0,68,0.00,,,0.00,165,Wunderground v.1.15,2013-03-24 11:59:00,
2013-03-24 08:04:00,31.0,21.7,29.89,NNW,346,4.0,5.0,68,0.00,,,0.00,185,Wunderground v.1.15,2013-03-24 12:04:00,
2013-03-24 08:14:00,31.5,21.8,29.89,WNW,290,5.0,7.0,67,0.00,,,0.00,248,Wunderground v.1.15,2013-03-24 12:14:00,
2013-03-24 08:19:00,31.9,21.8,29.90,North,9,6.0,7.0,66,0.00,,,0.00,279,Wunderground v.1.15,2013-03-24 12:19:00,
2013-03-24 08:24:00,32.1,21.7,29.90,NW,323,6.0,6.0,65,0.00,,,0.00,162,Wunderground v.1.15,2013-03-24 12:24:00,
2013-03-24 08:29:00,32.6,22.1,29.90,North,350,6.0,6.0,65,0.00,,,0.00,396,Wunderground v.1.15,2013-03-24 12:29:00,
2013-03-24 08:34:00,33.0,21.8,29.90,NNW,340,6.0,6.0,63,0.00,,,0.00,257,Wunderground v.1.15,2013-03-24 12:34:00,
2013-03-24 08:39:00,32.8,22.0,29.90,North,355,5.0,6.0,64,0.00,,,0.00,262,Wunderground v.1.15,2013-03-24 12:39:00,
2013-03-24 08:44:00,33.1,22.2,29.91,North,5,5.0,6.0,64,0.00,,,0.00,322,Wunderground v.1.15,2013-03-24 12:44:00,
2013-03-24 08:49:00,33.0,21.8,29.91,North,351,6.0,7.0,63,0.00,,,0.00,199,Wunderground v.1.15,2013-03-24 12:49:00,
2013-03-24 08:54:00,32.6,21.8,29.91,NW,325,7.0,10.0,64,0.00,,,0.00,227,Wunderground v.1.15,2013-03-24 12:54:00,
2013-03-24 08:59:00,32.8,22.0,29.91,North,360,8.0,10.0,64,0.00,,,0.00,527,Wunderground v.1.15,2013-03-24 12:59:00,
2013-03-24 09:09:00,32.7,21.9,29.90,NNW,344,9.0,14.0,64,0.00,,,0.00,243,Wunderground v.1.15,2013-03-24 13:09:00,
2013-03-24 09:14:00,32.8,22.3,29.90,North,5,10.0,11.0,65,0.00,,,0.00,381,Wunderground v.1.15,2013-03-24 13:14:00,
2013-03-24 09:19:00,32.9,22.4,29.91,NNW,341,9.0,11.0,65,0.00,,,0.00,290,Wunderground v.1.15,2013-03-24 13:19:00,
2013-03-24 09:24:00,32.8,22.3,29.91,North,349,9.0,9.0,65,0.00,,,0.00,225,Wunderground v.1.15,2013-03-24 13:24:00,
2013-03-24 09:34:00,32.5,22.0,29.91,North,5,8.0,11.0,65,0.00,,,0.00,230,Wunderground v.1.15,2013-03-24 13:34:00,
2013-03-24 09:39:00,32.5,22.4,29.91,North,360,7.0,11.0,66,0.00,,,0.00,230,Wunderground v.1.15,2013-03-24 13:39:00,
2013-03-24 09:44:00,32.7,22.6,29.91,NNW,340,5.0,5.0,66,0.00,,,0.00,220,Wunderground v.1.15,2013-03-24 13:44:00,
2013-03-24 09:49:00,32.9,22.4,29.91,North,5,5.0,9.0,65,0.00,,,0.00,216,Wunderground v.1.15,2013-03-24 13:49:00,
2013-03-24 09:59:00,32.5,22.0,29.90,North,349,8.0,11.0,65,0.00,,,0.00,246,Wunderground v.1.15,2013-03-24 13:59:00,
2013-03-24 10:04:00,32.5,22.4,29.91,NNW,334,7.0,7.0,66,0.00,,,0.00,253,Wunderground v.1.15,2013-03-24 14:04:00,
2013-03-24 10:09:00,32.5,22.0,29.91,NNW,333,7.0,9.0,65,0.00,,,0.00,216,Wunderground v.1.15,2013-03-24 14:09:00,
2013-03-24 10:14:00,32.5,22.4,29.91,NNE,16,8.0,8.0,66,0.00,,,0.00,236,Wunderground v.1.15,2013-03-24 14:14:00,
2013-03-24 10:19:00,32.6,22.5,29.91,North,355,8.0,9.0,66,0.00,,,0.00,241,Wunderground v.1.15,2013-03-24 14:19:00,
2013-03-24 10:24:00,32.7,22.6,29.90,NNW,346,7.0,8.0,66,0.00,,,0.00,274,Wunderground v.1.15,2013-03-24 14:24:00,
2013-03-24 10:29:00,33.0,22.5,29.90,NNW,344,7.0,8.0,65,0.00,,,0.00,294,Wunderground v.1.15,2013-03-24 14:29:00,
2013-03-24 10:34:00,33.3,22.8,29.89,North,355,6.0,6.0,65,0.00,,,0.00,325,Wunderground v.1.15,2013-03-24 14:34:00,
2013-03-24 10:44:00,33.7,22.4,29.89,NNW,333,4.0,12.0,63,0.00,,,0.00,318,Wunderground v.1.15,2013-03-24 14:44:00,
2013-03-24 10:49:00,34.2,23.3,29.89,North,355,6.0,12.0,64,0.00,,,0.00,882,Wunderground v.1.15,2013-03-24 14:49:00,
2013-03-24 10:54:00,34.7,23.0,29.89,North,5,8.0,12.0,62,0.00,,,0.00,290,Wunderground v.1.15,2013-03-24 14:54:00,
2013-03-24 10:59:00,34.2,22.1,29.89,NNE,28,9.0,12.0,61,0.00,,,0.00,297,Wunderground v.1.15,2013-03-24 14:59:00,
2013-03-24 11:09:00,34.9,22.8,29.88,NNW,331,8.0,10.0,61,0.00,,,0.00,432,Wunderground v.1.15,2013-03-24 15:09:00,
2013-03-24 11:14:00,35.0,22.9,29.89,NW,324,9.0,9.0,61,0.00,,,0.00,902,Wunderground v.1.15,2013-03-24 15:14:00,
2013-03-24 11:19:00,35.3,23.2,29.89,NNW,342,8.0,9.0,61,0.00,,,0.00,364,Wunderground v.1.15,2013-03-24 15:19:00,
2013-03-24 11:24:00,35.3,23.2,29.89,NNW,340,7.0,9.0,61,0.00,,,0.00,285,Wunderground v.1.15,2013-03-24 15:24:00,
2013-03-24 11:29:00,34.9,22.4,29.89,NE,46,8.0,11.0,60,0.00,,,0.00,466,Wunderground v.1.15,2013-03-24 15:29:00,
2013-03-24 11:34:00,34.6,22.9,29.89,NNW,341,8.0,10.0,62,0.00,,,0.00,403,Wunderground v.1.15,2013-03-24 15:34:00,
2013-03-24 11:39:00,34.8,23.1,29.89,North,355,6.0,10.0,62,0.00,,,0.00,406,Wunderground v.1.15,2013-03-24 15:39:00,
2013-03-24 11:49:00,34.9,22.4,29.89,North,360,6.0,9.0,60,0.00,,,0.00,369,Wunderground v.1.15,2013-03-24 15:49:00,
2013-03-24 11:59:00,35.4,22.9,29.88,NNE,18,7.0,11.0,60,0.00,,,0.00,466,Wunderground v.1.15,2013-03-24 15:59:00,
2013-03-24 12:04:00,36.0,23.0,29.88,NNE,19,7.0,11.0,59,0.00,,,0.00,998,Wunderground v.1.15,2013-03-24 16:04:00,
2013-03-24 12:09:00,36.2,23.2,29.87,NNW,329,8.0,11.0,59,0.00,,,0.00,587,Wunderground v.1.15,2013-03-24 16:09:00,
2013-03-24 12:19:00,36.8,23.8,29.87,WNW,300,9.0,9.0,59,0.00,,,0.00,949,Wunderground v.1.15,2013-03-24 16:19:00,
2013-03-24 12:24:00,37.3,23.4,29.86,North,355,7.0,8.0,57,0.00,,,0.00,868,Wunderground v.1.15,2013-03-24 16:24:00,
2013-03-24 12:29:00,37.4,23.5,29.86,North,360,6.0,8.0,57,0.00,,,0.00,814,Wunderground v.1.15,2013-03-24 16:29:00,
2013-03-24 12:39:00,36.6,24.0,29.84,NW,317,10.0,13.0,60,0.00,,,0.00,816,Wunderground v.1.15,2013-03-24 16:39:00,
2013-03-24 12:44:00,36.7,23.7,29.84,NNW,340,10.0,10.0,59,0.00,,,0.00,817,Wunderground v.1.15,2013-03-24 16:44:00,
2013-03-24 12:49:00,37.3,24.3,29.83,NE,38,9.0,10.0,59,0.00,,,0.00,819,Wunderground v.1.15,2013-03-24 16:49:00,
2013-03-24 12:54:00,37.9,24.0,29.84,NNW,345,6.0,12.0,57,0.00,,,0.00,800,Wunderground v.1.15,2013-03-24 16:54:00,
2013-03-24 12:59:00,37.9,24.0,29.84,NNW,341,6.0,12.0,57,0.00,,,0.00,816,Wunderground v.1.15,2013-03-24 16:59:00,
2013-03-24 13:04:00,37.0,23.2,29.84,North,5,7.0,7.0,57,0.00,,,0.00,795,Wunderground v.1.15,2013-03-24 17:04:00,
2013-03-24 13:14:00,37.8,23.9,29.84,NW,305,6.0,7.0,57,0.00,,,0.00,782,Wunderground v.1.15,2013-03-24 17:14:00,
2013-03-24 13:19:00,37.8,24.3,29.84,North,355,6.0,8.0,58,0.00,,,0.00,793,Wunderground v.1.15,2013-03-24 17:19:00,
2013-03-24 13:24:00,37.9,23.6,29.83,North,5,6.0,8.0,56,0.00,,,0.00,779,Wunderground v.1.15,2013-03-24 17:24:00,
2013-03-24 13:29:00,37.5,24.1,29.83,NNE,13,7.0,8.0,58,0.00,,,0.00,770,Wunderground v.1.15,2013-03-24 17:29:00,
2013-03-24 13:34:00,38.2,24.3,29.83,NNW,333,6.0,13.0,57,0.00,,,0.00,758,Wunderground v.1.15,2013-03-24 17:34:00,
2013-03-24 13:44:00,38.4,24.1,29.82,NE,36,7.0,7.0,56,0.00,,,0.01,708,Wunderground v.1.15,2013-03-24 17:44:00,
2013-03-24 13:49:00,38.4,23.6,29.83,NNW,331,7.0,8.0,55,0.00,,,0.01,696,Wunderground v.1.15,2013-03-24 17:49:00,
2013-03-24 13:54:00,38.1,23.8,29.83,North,360,7.0,14.0,56,0.00,,,0.01,712,Wunderground v.1.15,2013-03-24 17:54:00,
2013-03-24 13:59:00,38.4,24.1,29.82,North,5,7.0,14.0,56,0.00,,,0.01,731,Wunderground v.1.15,2013-03-24 17:59:00,
2013-03-24 14:04:00,38.3,24.0,29.82,North,355,7.0,7.0,56,0.00,,,0.01,693,Wunderground v.1.15,2013-03-24 18:04:00,
2013-03-24 14:14:00,38.5,24.6,29.82,NW,320,6.0,6.0,57,0.00,,,0.01,710,Wunderground v.1.15,2013-03-24 18:14:00,
2013-03-24 14:24:00,38.9,24.5,29.81,North,351,8.0,10.0,56,0.00,,,0.01,747,Wunderground v.1.15,2013-03-24 18:24:00,
2013-03-24 14:29:00,38.3,24.0,29.81,North,5,8.0,10.0,56,0.00,,,0.01,735,Wunderground v.1.15,2013-03-24 18:29:00,
2013-03-24 14:34:00,38.9,24.5,29.81,North,9,8.0,8.0,56,0.00,,,0.01,707,Wunderground v.1.15,2013-03-24 18:34:00,
2013-03-24 14:39:00,39.3,24.9,29.80,NW,319,7.0,11.0,56,0.00,,,0.01,675,Wunderground v.1.15,2013-03-24 18:39:00,
2013-03-24 14:49:00,38.5,23.7,29.80,NNW,340,8.0,8.0,55,0.00,,,0.01,650,Wunderground v.1.15,2013-03-24 18:49:00,
2013-03-24 14:54:00,38.6,23.8,29.80,North,350,7.0,7.0,55,0.00,,,0.01,656,Wunderground v.1.15,2013-03-24 18:54:00,
2013-03-24 14:59:00,38.8,24.0,29.79,NNW,333,7.0,7.0,55,0.00,,,0.01,624,Wunderground v.1.15,2013-03-24 18:59:00,
2013-03-24 15:04:00,39.1,24.3,29.78,NNW,332,6.0,6.0,55,0.00,,,0.01,610,Wunderground v.1.15,2013-03-24 19:04:00,
2013-03-24 15:09:00,39.6,24.7,29.78,North,355,5.0,6.0,55,0.00,,,0.01,564,Wunderground v.1.15,2013-03-24 19:09:00,
2013-03-24 15:14:00,39.3,23.6,29.78,NNW,329,6.0,10.0,53,0.00,,,0.01,598,Wunderground v.1.15,2013-03-24 19:14:00,
2013-03-24 15:24:00,39.2,24.4,29.77,North,360,6.0,6.0,55,0.00,,,0.01,485,Wunderground v.1.15,2013-03-24 19:24:00,
2013-03-24 15:34:00,39.2,23.9,29.76,North,360,6.0,6.0,54,0.00,,,0.01,550,Wunderground v.1.15,2013-03-24 19:34:00,
2013-03-24 15:39:00,39.1,24.3,29.76,NNW,340,7.0,7.0,55,0.00,,,0.01,457,Wunderground v.1.15,2013-03-24 19:39:00,
2013-03-24 15:44:00,39.1,24.7,29.76,NNW,346,6.0,9.0,56,0.00,,,0.01,274,Wunderground v.1.15,2013-03-24 19:44:00,
2013-03-24 15:49:00,38.9,24.5,29.76,NW,312,7.0,9.0,56,0.00,,,0.01,283,Wunderground v.1.15,2013-03-24 19:49:00,
2013-03-24 15:54:00,39.2,24.8,29.76,NNE,15,7.0,7.0,56,0.00,,,0.01,338,Wunderground v.1.15,2013-03-24 19:54:00,
2013-03-24 15:59:00,39.4,23.7,29.77,North,5,5.0,7.0,53,0.00,,,0.01,186,Wunderground v.1.15,2013-03-24 19:59:00,
2013-03-24 16:04:00,39.2,24.4,29.76,NNE,17,5.0,10.0,55,0.00,,,0.01,239,Wunderground v.1.15,2013-03-24 20:04:00,
2013-03-24 16:09:00,39.4,25.0,29.76,NNW,333,5.0,10.0,56,0.00,,,0.01,243,Wunderground v.1.15,2013-03-24 20:09:00,
2013-03-24 16:14:00,39.2,24.8,29.76,NNW,342,5.0,7.0,56,0.00,,,0.01,202,Wunderground v.1.15,2013-03-24 20:14:00,
2013-03-24 16:19:00,38.9,24.1,29.76,NW,324,6.0,7.0,55,0.00,,,0.01,265,Wunderground v.1.15,2013-03-24 20:19:00,
2013-03-24 16:24:00,39.0,24.2,29.76,NW,323,6.0,6.0,55,0.00,,,0.01,239,Wunderground v.1.15,2013-03-24 20:24:00,
2013-03-24 16:29:00,39.1,23.8,29.75,North,360,6.0,6.0,54,0.00,,,0.01,227,Wunderground v.1.15,2013-03-24 20:29:00,
2013-03-24 16:39:00,39.2,24.4,29.75,NNW,344,6.0,10.0,55,0.00,,,0.01,153,Wunderground v.1.15,2013-03-24 20:39:00,
2013-03-24 16:44:00,38.8,24.0,29.75,NW,322,5.0,5.0,55,0.00,,,0.01,144,Wunderground v.1.15,2013-03-24 20:44:00,
2013-03-24 16:49:00,38.8,24.4,29.75,North,5,4.0,5.0,56,0.00,,,0.01,151,Wunderground v.1.15,2013-03-24 20:49:00,
2013-03-24 16:54:00,39.1,23.8,29.75,NNE,13,4.0,4.0,54,0.00,,,0.01,149,Wunderground v.1.15,2013-03-24 20:54:00,
2013-03-24 17:04:00,39.3,24.0,29.76,North,5,5.0,7.0,54,0.00,,,0.01,135,Wunderground v.1.15,2013-03-24 21:04:00,
2013-03-24 17:09:00,39.3,24.0,29.76,NNW,344,6.0,7.0,54,0.00,,,0.01,151,Wunderground v.1.15,2013-03-24 21:09:00,
2013-03-24 17:14:00,39.2,24.4,29.75,NNW,336,5.0,5.0,55,0.00,,,0.01,144,Wunderground v.1.15,2013-03-24 21:14:00,
2013-03-24 17:19:00,39.3,24.0,29.76,NNE,12,5.0,5.0,54,0.00,,,0.01,123,Wunderground v.1.15,2013-03-24 21:19:00,
2013-03-24 17:24:00,39.2,24.8,29.75,NNE,15,4.0,4.0,56,0.00,,,0.01,107,Wunderground v.1.15,2013-03-24 21:24:00,
2013-03-24 17:29:00,39.1,24.7,29.75,North,5,2.0,4.0,56,0.00,,,0.01,102,Wunderground v.1.15,2013-03-24 21:29:00,
2013-03-24 17:34:00,39.1,23.8,29.75,NNW,336,3.0,4.0,54,0.00,,,0.01,98,Wunderground v.1.15,2013-03-24 21:34:00,
2013-03-24 17:39:00,39.0,24.6,29.75,North,355,4.0,4.0,56,0.00,,,0.01,102,Wunderground v.1.15,2013-03-24 21:39:00,
2013-03-24 17:49:00,39.1,24.3,29.75,NNW,347,3.0,6.0,55,0.00,,,0.01,91,Wunderground v.1.15,2013-03-24 21:49:00,
2013-03-24 17:54:00,39.0,24.2,29.75,NNW,343,4.0,4.0,55,0.00,,,0.01,88,Wunderground v.1.15,2013-03-24 21:54:00,
2013-03-24 17:59:00,38.9,24.5,29.75,NNW,346,4.0,4.0,56,0.00,,,0.01,76,Wunderground v.1.15,2013-03-24 21:59:00,
2013-03-24 18:04:00,38.7,23.9,29.74,NNW,332,5.0,5.0,55,0.00,,,0.01,74,Wunderground v.1.15,2013-03-24 22:04:00,
2013-03-24 18:14:00,38.6,24.2,29.75,NNW,341,5.0,7.0,56,0.00,,,0.01,62,Wunderground v.1.15,2013-03-24 22:14:00,
2013-03-24 18:24:00,38.4,24.1,29.75,North,355,4.0,6.0,56,0.00,,,0.01,46,Wunderground v.1.15,2013-03-24 22:24:00,
2013-03-24 18:29:00,38.4,24.1,29.75,NNW,328,5.0,6.0,56,0.00,,,0.01,39,Wunderground v.1.15,2013-03-24 22:29:00,
2013-03-24 18:39:00,38.6,23.8,29.75,NNE,22,4.0,5.0,55,0.00,,,0.01,25,Wunderground v.1.15,2013-03-24 22:39:00,
2013-03-24 18:44:00,38.6,24.2,29.75,North,355,2.0,3.0,56,0.00,,,0.01,19,Wunderground v.1.15,2013-03-24 22:44:00,
2013-03-24 18:49:00,38.6,24.2,29.75,NNW,340,2.0,3.0,56,0.00,,,0.01,18,Wunderground v.1.15,2013-03-24 22:49:00,
2013-03-24 18:54:00,38.4,23.6,29.75,North,360,2.0,2.0,55,0.00,,,0.01,14,Wunderground v.1.15,2013-03-24 22:54:00,
2013-03-24 19:04:00,38.2,23.9,29.75,North,350,2.0,3.0,56,0.00,,,0.01,5,Wunderground v.1.15,2013-03-24 23:04:00,
2013-03-24 19:14:00,37.9,23.6,29.75,NNW,338,2.0,2.0,56,0.00,,,0.01,0,Wunderground v.1.15,2013-03-24 23:14:00,
2013-03-24 19:19:00,37.8,23.9,29.75,NNW,344,2.0,3.0,57,0.00,,,0.01,0,Wunderground v.1.15,2013-03-24 23:19:00,
2013-03-24 19:29:00,37.5,23.6,29.75,NNW,346,3.0,5.0,57,0.00,,,0.01,0,Wunderground v.1.15,2013-03-24 23:29:00,
2013-03-24 19:34:00,37.3,23.9,29.75,North,355,3.0,3.0,58,0.00,,,0.01,0,Wunderground v.1.15,2013-03-24 23:34:00,
2013-03-24 19:44:00,37.0,23.6,29.75,NNW,337,3.0,3.0,58,0.00,,,0.01,0,Wunderground v.1.15,2013-03-24 23:44:00,
2013-03-24 19:49:00,36.9,23.5,29.75,North,5,3.0,3.0,58,0.00,,,0.01,0,Wunderground v.1.15,2013-03-24 23:49:00,
2013-03-24 19:54:00,36.8,23.8,29.75,NNW,344,2.0,4.0,59,0.00,,,0.01,0,Wunderground v.1.15,2013-03-24 23:54:00,
2013-03-24 19:59:00,36.6,23.6,29.76,NNE,15,2.0,4.0,59,0.00,,,0.01,0,Wunderground v.1.15,2013-03-24 23:59:00,
2013-03-24 20:04:00,36.5,23.9,29.76,North,11,3.0,3.0,60,0.00,,,0.01,0,Wunderground v.1.15,2013-03-25 00:04:00,
2013-03-24 20:09:00,36.4,23.8,29.76,North,5,3.0,5.0,60,0.00,,,0.01,0,Wunderground v.1.15,2013-03-25 00:09:00,
2013-03-24 20:14:00,36.3,23.7,29.77,North,360,3.0,4.0,60,0.00,,,0.01,0,Wunderground v.1.15,2013-03-25 00:14:00,
2013-03-24 20:24:00,36.1,23.9,29.78,NNE,28,3.0,4.0,61,0.00,,,0.01,0,Wunderground v.1.15,2013-03-25 00:24:00,
2013-03-24 20:29:00,36.1,23.9,29.78,North,9,2.0,4.0,61,0.00,,,0.01,0,Wunderground v.1.15,2013-03-25 00:29:00,
2013-03-24 20:39:00,36.0,24.2,29.79,NE,45,3.0,3.0,62,0.00,,,0.01,0,Wunderground v.1.15,2013-03-25 00:39:00,
2013-03-24 20:49:00,35.8,24.0,29.80,North,355,1.0,2.0,62,0.00,,,0.01,0,Wunderground v.1.15,2013-03-25 00:49:00,
2013-03-24 20:54:00,35.7,23.9,29.80,NE,44,1.0,3.0,62,0.00,,,0.01,0,Wunderground v.1.15,2013-03-25 00:54:00,
2013-03-24 20:59:00,35.7,23.9,29.79,NNE,13,1.0,3.0,62,0.00,,,0.01,0,Wunderground v.1.15,2013-03-25 00:59:00,
2013-03-24 21:04:00,35.6,23.9,29.80,NNW,347,2.0,2.0,62,0.00,,,0.01,0,Wunderground v.1.15,2013-03-25 01:04:00,
2013-03-24 21:14:00,35.4,24.0,29.79,North,355,3.0,3.0,63,0.00,,,0.01,0,Wunderground v.1.15,2013-03-25 01:14:00,
2013-03-24 21:24:00,35.2,23.9,29.79,North,5,3.0,3.0,63,0.00,,,0.01,0,Wunderground v.1.15,2013-03-25 01:24:00,
2013-03-24 21:29:00,35.2,23.5,29.79,NE,39,3.0,3.0,62,0.00,,,0.01,0,Wunderground v.1.15,2013-03-25 01:29:00,
2013-03-24 21:34:00,35.1,23.8,29.79,North,9,3.0,3.0,63,0.00,,,0.01,0,Wunderground v.1.15,2013-03-25 01:34:00,
2013-03-24 21:39:00,35.1,23.8,29.79,NE,39,3.0,3.0,63,0.00,,,0.01,0,Wunderground v.1.15,2013-03-25 01:39:00,
2013-03-24 21:49:00,34.9,23.6,29.79,NNW,347,3.0,3.0,63,0.00,,,0.01,0,Wunderground v.1.15,2013-03-25 01:49:00,
2013-03-24 21:54:00,34.8,23.9,29.79,North,360,2.0,2.0,64,0.00,,,0.01,0,Wunderground v.1.15,2013-03-25 01:54:00,
2013-03-24 21:59:00,34.7,23.8,29.79,NNE,12,2.0,3.0,64,0.00,,,0.01,0,Wunderground v.1.15,2013-03-25 01:59:00,
2013-03-24 22:04:00,34.6,23.7,29.79,NNW,342,3.0,4.0,64,0.00,,,0.01,0,Wunderground v.1.15,2013-03-25 02:04:00,
2013-03-24 22:09:00,34.5,23.6,29.79,NNE,30,3.0,4.0,64,0.00,,,0.01,0,Wunderground v.1.15,2013-03-25 02:09:00,
2013-03-24 22:14:00,34.4,23.8,29.78,North,9,3.0,4.0,65,0.00,,,0.01,0,Wunderground v.1.15,2013-03-25 02:14:00,
2013-03-24 22:24:00,34.3,23.7,29.79,North,351,4.0,4.0,65,0.00,,,0.01,0,Wunderground v.1.15,2013-03-25 02:24:00,
2013-03-24 22:34:00,34.1,23.6,29.78,North,360,2.0,4.0,65,0.00,,,0.01,0,Wunderground v.1.15,2013-03-25 02:34:00,
2013-03-24 22:44:00,34.0,23.5,29.78,North,5,3.0,3.0,65,0.00,,,0.01,0,Wunderground v.1.15,2013-03-25 02:44:00,
2013-03-24 22:49:00,33.9,23.7,29.78,North,11,3.0,5.0,66,0.00,,,0.01,0,Wunderground v.1.15,2013-03-25 02:49:00,
2013-03-24 22:54:00,33.8,23.6,29.78,North,5,3.0,3.0,66,0.00,,,0.01,0,Wunderground v.1.15,2013-03-25 02:54:00,
2013-03-24 23:04:00,33.6,23.4,29.78,North,9,3.0,4.0,66,0.00,,,0.01,0,Wunderground v.1.15,2013-03-25 03:04:00,
2013-03-24 23:14:00,33.5,23.7,29.78,North,5,3.0,3.0,67,0.00,,,0.01,0,Wunderground v.1.15,2013-03-25 03:14:00,
2013-03-24 23:19:00,33.4,23.6,29.78,North,360,3.0,4.0,67,0.00,,,0.01,0,Wunderground v.1.15,2013-03-25 03:19:00,
2013-03-24 23:24:00,33.3,23.5,29.78,North,355,3.0,4.0,67,0.00,,,0.01,0,Wunderground v.1.15,2013-03-25 03:24:00,
2013-03-24 23:29:00,33.2,23.4,29.77,ENE,63,4.0,4.0,67,0.00,,,0.01,0,Wunderground v.1.15,2013-03-25 03:29:00,
2013-03-24 23:34:00,33.1,23.3,29.77,NE,44,4.0,4.0,67,0.00,,,0.01,0,Wunderground v.1.15,2013-03-25 03:34:00,
2013-03-24 23:39:00,33.0,23.6,29.77,NNW,344,3.0,4.0,68,0.00,,,0.01,0,Wunderground v.1.15,2013-03-25 03:39:00,
2013-03-24 23:44:00,32.9,23.5,29.77,NNE,19,3.0,3.0,68,0.00,,,0.01,0,Wunderground v.1.15,2013-03-25 03:44:00,
2013-03-24 23:54:00,32.7,23.6,29.78,NE,47,2.0,2.0,69,0.00,,,0.01,0,Wunderground v.1.15,2013-03-25 03:54:00,